Overview Statistics Trail Chart Weather Telemetry Raw packets
 

This is the latest recevied weather packets stored in our database for station/object KG5VSR. If no packets are shown the sender has not sent any weather packets the latest 10 day(s).

<< 9 10 11 12 13 14 15 >>
Time Temp. Humidity Pressure Rain* Wind** Luminosity Snow
1788192475 33.89° C 53% 1017.9 hPa 0 mm - 758 W/m² -
1788190674 32.22° C 58% 1017.9 hPa 0 mm - 587 W/m² -
1788188873 31.67° C 64% 1018 hPa 0 mm - 501 W/m² -
1788187074 29.44° C 69% 1017.8 hPa 0 mm - 205 W/m² -
1788185272 28.89° C 72% 1017.6 hPa 0 mm - 150 W/m² -
1788183468 28.33° C 73% 1017.4 hPa 0 mm - 151 W/m² -
1788181669 27.78° C 74% 1017.1 hPa 0 mm - 63 W/m² -
1788179866 26.67° C 76% 1016.4 hPa 0 mm - 27 W/m² -
1788178064 26.11° C 79% 1016.4 hPa 0 mm - 3 W/m² -
1788176262 26.67° C 77% 1015.9 hPa 0 mm - 0 W/m² -
1788174462 26.67° C 75% 1015.7 hPa 0 mm - 0 W/m² -
1788172660 27.22° C 73% 1015.9 hPa 0 mm - 0 W/m² -
1788170861 27.22° C 72% 1015.5 hPa 0 mm - 0 W/m² -
1788169061 27.78° C 70% 1015.7 hPa 0 mm - 0 W/m² -
1788167261 28.33° C 67% 1015.1 hPa 0 mm - 0 W/m² -
1788165458 28.89° C 65% 1015.2 hPa 0 mm - 0 W/m² -
1788163657 28.89° C 62% 1015 hPa 0 mm - 0 W/m² -
1788161856 29.44° C 61% 1015 hPa 0 mm - 0 W/m² -
1788160053 27.78° C 65% 1014.8 hPa 0 mm - 0 W/m² -
1788158247 28.89° C 62% 1014.9 hPa 0 mm - 0 W/m² -
1788156444 29.44° C 61% 1014.9 hPa 0 mm - 0 W/m² -
1788154645 28.89° C 61% 1014.9 hPa 0 mm - 0 W/m² -
1788152840 29.44° C 59% 1014.9 hPa 0 mm - 0 W/m² -
1788151038 30.56° C 55% 1014.8 hPa 0 mm - 0 W/m² -
1788149235 31.67° C 53% 1014.7 hPa 0 mm - 0 W/m² -

* Rain latest hour (hover to see other rain measurements)
** Current wind speed in m/s (hover to see current wind gust speed)